sensor_id;sensor_type;location;lat;lon;timestamp;temperature;humidity
14370;DHT22;7268;50.792;0.252;2024-03-29T00:01:22;8.50;99.90
14370;DHT22;7268;50.792;0.252;2024-03-29T00:03:48;8.50;99.90
14370;DHT22;7268;50.792;0.252;2024-03-29T00:06:14;8.50;99.90
14370;DHT22;7268;50.792;0.252;2024-03-29T00:08:40;8.60;99.90
14370;DHT22;7268;50.792;0.252;2024-03-29T00:11:06;8.60;99.90
14370;DHT22;7268;50.792;0.252;2024-03-29T00:13:32;8.70;99.90
14370;DHT22;7268;50.792;0.252;2024-03-29T00:15:58;8.70;99.90
14370;DHT22;7268;50.792;0.252;2024-03-29T00:18:23;8.80;99.90
14370;DHT22;7268;50.792;0.252;2024-03-29T00:20:49;8.80;99.90
14370;DHT22;7268;50.792;0.252;2024-03-29T00:23:15;8.70;99.90
14370;DHT22;7268;50.792;0.252;2024-03-29T00:25:41;8.80;99.90
14370;DHT22;7268;50.792;0.252;2024-03-29T00:28:07;8.80;99.90
14370;DHT22;7268;50.792;0.252;2024-03-29T00:30:33;8.80;99.90
14370;DHT22;7268;50.792;0.252;2024-03-29T00:32:59;8.90;99.90
14370;DHT22;7268;50.792;0.252;2024-03-29T00:35:25;8.90;99.90
14370;DHT22;7268;50.792;0.252;2024-03-29T00:37:51;9.00;99.90
14370;DHT22;7268;50.792;0.252;2024-03-29T00:40:17;9.00;99.90
14370;DHT22;7268;50.792;0.252;2024-03-29T00:42:43;9.00;99.90
14370;DHT22;7268;50.792;0.252;2024-03-29T00:45:09;9.00;99.90
14370;DHT22;7268;50.792;0.252;2024-03-29T00:47:35;9.00;99.90
14370;DHT22;7268;50.792;0.252;2024-03-29T00:50:01;9.10;99.90
14370;DHT22;7268;50.792;0.252;2024-03-29T00:52:27;9.10;99.90
14370;DHT22;7268;50.792;0.252;2024-03-29T00:54:53;9.30;99.90
14370;DHT22;7268;50.792;0.252;2024-03-29T00:57:19;9.30;99.90
14370;DHT22;7268;50.792;0.252;2024-03-29T00:59:45;9.30;99.90
14370;DHT22;7268;50.792;0.252;2024-03-29T01:02:12;9.30;99.90
14370;DHT22;7268;50.792;0.252;2024-03-29T01:04:38;9.30;99.90
14370;DHT22;7268;50.792;0.252;2024-03-29T01:07:06;9.30;99.90
14370;DHT22;7268;50.792;0.252;2024-03-29T01:09:32;9.30;99.90
14370;DHT22;7268;50.792;0.252;2024-03-29T01:11:58;9.30;99.90
14370;DHT22;7268;50.792;0.252;2024-03-29T01:14:24;9.30;99.90
14370;DHT22;7268;50.792;0.252;2024-03-29T01:16:49;9.30;99.90
14370;DHT22;7268;50.792;0.252;2024-03-29T01:19:15;9.40;99.90
14370;DHT22;7268;50.792;0.252;2024-03-29T01:21:41;9.30;99.90
14370;DHT22;7268;50.792;0.252;2024-03-29T01:24:07;9.30;99.90
14370;DHT22;7268;50.792;0.252;2024-03-29T01:26:33;9.20;99.90
14370;DHT22;7268;50.792;0.252;2024-03-29T01:28:59;9.20;99.90
14370;DHT22;7268;50.792;0.252;2024-03-29T01:31:25;9.20;99.90
14370;DHT22;7268;50.792;0.252;2024-03-29T01:33:51;9.20;99.90
14370;DHT22;7268;50.792;0.252;2024-03-29T01:36:17;9.30;99.90
14370;DHT22;7268;50.792;0.252;2024-03-29T01:38:43;9.20;99.90
14370;DHT22;7268;50.792;0.252;2024-03-29T01:41:12;9.30;99.90
14370;DHT22;7268;50.792;0.252;2024-03-29T01:43:38;9.30;99.90
14370;DHT22;7268;50.792;0.252;2024-03-29T01:46:04;9.30;99.90
14370;DHT22;7268;50.792;0.252;2024-03-29T01:48:34;9.30;99.90
14370;DHT22;7268;50.792;0.252;2024-03-29T01:51:00;9.20;99.90
14370;DHT22;7268;50.792;0.252;2024-03-29T01:53:27;9.20;99.90
14370;DHT22;7268;50.792;0.252;2024-03-29T01:55:54;9.20;99.90
14370;DHT22;7268;50.792;0.252;2024-03-29T01:58:20;9.30;99.90
14370;DHT22;7268;50.792;0.252;2024-03-29T02:00:55;9.30;99.90
14370;DHT22;7268;50.792;0.252;2024-03-29T02:03:23;9.20;99.90
14370;DHT22;7268;50.792;0.252;2024-03-29T02:05:49;9.30;99.90
14370;DHT22;7268;50.792;0.252;2024-03-29T02:08:16;9.30;99.90
14370;DHT22;7268;50.792;0.252;2024-03-29T02:10:43;9.20;99.90
14370;DHT22;7268;50.792;0.252;2024-03-29T02:13:11;9.30;99.90
14370;DHT22;7268;50.792;0.252;2024-03-29T02:15:39;9.20;99.90
14370;DHT22;7268;50.792;0.252;2024-03-29T02:18:05;9.20;99.90
14370;DHT22;7268;50.792;0.252;2024-03-29T02:20:31;9.10;99.90
14370;DHT22;7268;50.792;0.252;2024-03-29T02:23:02;9.10;99.90
14370;DHT22;7268;50.792;0.252;2024-03-29T02:25:31;9.10;99.90
14370;DHT22;7268;50.792;0.252;2024-03-29T02:27:58;9.10;99.90
14370;DHT22;7268;50.792;0.252;2024-03-29T02:30:25;9.00;99.90
14370;DHT22;7268;50.792;0.252;2024-03-29T02:32:51;9.00;99.90
14370;DHT22;7268;50.792;0.252;2024-03-29T02:35:17;8.90;99.90
14370;DHT22;7268;50.792;0.252;2024-03-29T02:37:43;8.80;99.90
14370;DHT22;7268;50.792;0.252;2024-03-29T02:40:09;8.80;99.90
14370;DHT22;7268;50.792;0.252;2024-03-29T02:42:35;8.70;99.90
14370;DHT22;7268;50.792;0.252;2024-03-29T02:45:02;8.70;99.90
14370;DHT22;7268;50.792;0.252;2024-03-29T02:47:28;8.70;99.90
14370;DHT22;7268;50.792;0.252;2024-03-29T02:49:54;8.80;99.90
14370;DHT22;7268;50.792;0.252;2024-03-29T02:52:20;8.80;99.90
14370;DHT22;7268;50.792;0.252;2024-03-29T02:54:46;8.80;99.90
14370;DHT22;7268;50.792;0.252;2024-03-29T02:57:12;8.90;99.90
14370;DHT22;7268;50.792;0.252;2024-03-29T02:59:40;9.00;99.90
14370;DHT22;7268;50.792;0.252;2024-03-29T03:02:06;9.00;99.90
14370;DHT22;7268;50.792;0.252;2024-03-29T03:04:31;9.00;99.90
14370;DHT22;7268;50.792;0.252;2024-03-29T03:06:57;9.00;99.90
14370;DHT22;7268;50.792;0.252;2024-03-29T03:09:43;9.00;99.90
14370;DHT22;7268;50.792;0.252;2024-03-29T03:12:29;8.90;99.90
14370;DHT22;7268;50.792;0.252;2024-03-29T03:14:56;8.90;99.90
14370;DHT22;7268;50.792;0.252;2024-03-29T03:17:22;8.80;99.90
14370;DHT22;7268;50.792;0.252;2024-03-29T03:19:51;8.80;99.90
14370;DHT22;7268;50.792;0.252;2024-03-29T03:22:17;8.80;99.90
14370;DHT22;7268;50.792;0.252;2024-03-29T03:24:43;8.80;99.90
14370;DHT22;7268;50.792;0.252;2024-03-29T03:27:09;8.80;99.90
14370;DHT22;7268;50.792;0.252;2024-03-29T03:29:35;8.70;99.90
14370;DHT22;7268;50.792;0.252;2024-03-29T03:32:01;8.70;99.90
14370;DHT22;7268;50.792;0.252;2024-03-29T03:34:27;8.70;99.90
14370;DHT22;7268;50.792;0.252;2024-03-29T03:36:53;8.70;99.90
14370;DHT22;7268;50.792;0.252;2024-03-29T03:39:19;8.70;99.90
14370;DHT22;7268;50.792;0.252;2024-03-29T03:41:45;8.80;99.90
14370;DHT22;7268;50.792;0.252;2024-03-29T03:44:11;8.70;99.90
14370;DHT22;7268;50.792;0.252;2024-03-29T03:46:37;8.70;99.90
14370;DHT22;7268;50.792;0.252;2024-03-29T03:49:02;8.70;99.90
14370;DHT22;7268;50.792;0.252;2024-03-29T03:51:28;8.80;99.90
14370;DHT22;7268;50.792;0.252;2024-03-29T03:53:54;8.80;99.90
14370;DHT22;7268;50.792;0.252;2024-03-29T03:56:20;8.80;99.90
14370;DHT22;7268;50.792;0.252;2024-03-29T03:58:46;8.80;99.90
14370;DHT22;7268;50.792;0.252;2024-03-29T04:01:12;8.80;99.90
14370;DHT22;7268;50.792;0.252;2024-03-29T04:03:38;8.80;99.90
14370;DHT22;7268;50.792;0.252;2024-03-29T04:06:06;8.70;99.90
14370;DHT22;7268;50.792;0.252;2024-03-29T04:08:32;8.70;99.90
14370;DHT22;7268;50.792;0.252;2024-03-29T04:11:02;8.60;99.90
14370;DHT22;7268;50.792;0.252;2024-03-29T04:13:28;8.60;99.90
14370;DHT22;7268;50.792;0.252;2024-03-29T04:16:04;8.50;99.90
14370;DHT22;7268;50.792;0.252;2024-03-29T04:18:30;8.50;99.90
14370;DHT22;7268;50.792;0.252;2024-03-29T04:21:00;8.50;99.90
14370;DHT22;7268;50.792;0.252;2024-03-29T04:23:26;8.50;99.90
14370;DHT22;7268;50.792;0.252;2024-03-29T04:25:56;8.50;99.90
14370;DHT22;7268;50.792;0.252;2024-03-29T04:28:23;8.50;99.90
14370;DHT22;7268;50.792;0.252;2024-03-29T04:30:55;8.50;99.90
14370;DHT22;7268;50.792;0.252;2024-03-29T04:33:22;8.50;99.90
14370;DHT22;7268;50.792;0.252;2024-03-29T04:38:26;8.50;99.90
14370;DHT22;7268;50.792;0.252;2024-03-29T04:40:53;8.50;99.90
14370;DHT22;7268;50.792;0.252;2024-03-29T04:43:21;8.50;99.90
14370;DHT22;7268;50.792;0.252;2024-03-29T04:45:47;8.40;99.90
14370;DHT22;7268;50.792;0.252;2024-03-29T04:48:13;8.40;99.90
14370;DHT22;7268;50.792;0.252;2024-03-29T04:50:40;8.40;99.90
14370;DHT22;7268;50.792;0.252;2024-03-29T04:53:07;8.30;99.90
14370;DHT22;7268;50.792;0.252;2024-03-29T04:55:34;8.30;99.90
14370;DHT22;7268;50.792;0.252;2024-03-29T04:58:01;8.30;99.90
14370;DHT22;7268;50.792;0.252;2024-03-29T05:00:27;8.20;99.90
14370;DHT22;7268;50.792;0.252;2024-03-29T05:02:53;8.20;99.90
14370;DHT22;7268;50.792;0.252;2024-03-29T05:05:19;8.20;99.90
14370;DHT22;7268;50.792;0.252;2024-03-29T05:07:45;8.20;99.90
14370;DHT22;7268;50.792;0.252;2024-03-29T05:10:11;8.20;99.90
14370;DHT22;7268;50.792;0.252;2024-03-29T05:12:38;8.20;99.90
14370;DHT22;7268;50.792;0.252;2024-03-29T05:15:04;8.10;99.90
14370;DHT22;7268;50.792;0.252;2024-03-29T05:17:30;8.10;99.90
14370;DHT22;7268;50.792;0.252;2024-03-29T05:19:56;8.00;99.90
14370;DHT22;7268;50.792;0.252;2024-03-29T05:22:22;8.00;99.90
14370;DHT22;7268;50.792;0.252;2024-03-29T05:24:49;8.00;99.90
14370;DHT22;7268;50.792;0.252;2024-03-29T05:27:18;7.90;99.90
14370;DHT22;7268;50.792;0.252;2024-03-29T05:29:44;7.90;99.90
14370;DHT22;7268;50.792;0.252;2024-03-29T05:32:09;7.90;99.90
14370;DHT22;7268;50.792;0.252;2024-03-29T05:34:35;7.90;99.90
14370;DHT22;7268;50.792;0.252;2024-03-29T05:37:01;7.90;99.90
14370;DHT22;7268;50.792;0.252;2024-03-29T05:39:27;7.90;99.90
14370;DHT22;7268;50.792;0.252;2024-03-29T05:41:53;7.90;99.90
14370;DHT22;7268;50.792;0.252;2024-03-29T05:44:19;7.90;99.90
14370;DHT22;7268;50.792;0.252;2024-03-29T05:46:45;7.90;99.90
14370;DHT22;7268;50.792;0.252;2024-03-29T05:49:11;8.00;99.90
14370;DHT22;7268;50.792;0.252;2024-03-29T05:51:37;8.00;99.90
14370;DHT22;7268;50.792;0.252;2024-03-29T05:54:03;8.00;99.90
14370;DHT22;7268;50.792;0.252;2024-03-29T05:56:29;8.00;99.90
14370;DHT22;7268;50.792;0.252;2024-03-29T05:58:55;8.10;99.90
14370;DHT22;7268;50.792;0.252;2024-03-29T06:01:21;8.10;99.90
14370;DHT22;7268;50.792;0.252;2024-03-29T06:03:49;8.10;99.90
14370;DHT22;7268;50.792;0.252;2024-03-29T06:06:20;8.10;99.90
14370;DHT22;7268;50.792;0.252;2024-03-29T06:08:50;8.20;99.90
14370;DHT22;7268;50.792;0.252;2024-03-29T06:11:16;8.20;99.90
14370;DHT22;7268;50.792;0.252;2024-03-29T06:13:41;8.20;99.90
14370;DHT22;7268;50.792;0.252;2024-03-29T06:16:24;8.20;99.90
14370;DHT22;7268;50.792;0.252;2024-03-29T06:19:09;8.30;99.90
14370;DHT22;7268;50.792;0.252;2024-03-29T06:21:35;8.30;99.90
14370;DHT22;7268;50.792;0.252;2024-03-29T06:24:13;8.20;99.90
14370;DHT22;7268;50.792;0.252;2024-03-29T06:26:40;8.30;99.90
14370;DHT22;7268;50.792;0.252;2024-03-29T06:29:06;8.30;99.90
14370;DHT22;7268;50.792;0.252;2024-03-29T06:31:35;8.30;99.90
14370;DHT22;7268;50.792;0.252;2024-03-29T06:34:01;8.30;99.90
14370;DHT22;7268;50.792;0.252;2024-03-29T06:36:26;8.30;99.90
14370;DHT22;7268;50.792;0.252;2024-03-29T06:38:54;8.40;99.90
14370;DHT22;7268;50.792;0.252;2024-03-29T06:41:20;8.50;99.90
14370;DHT22;7268;50.792;0.252;2024-03-29T06:43:46;8.50;99.90
14370;DHT22;7268;50.792;0.252;2024-03-29T06:46:13;8.60;99.90
14370;DHT22;7268;50.792;0.252;2024-03-29T06:48:39;8.60;99.90
14370;DHT22;7268;50.792;0.252;2024-03-29T06:51:05;8.80;99.90
14370;DHT22;7268;50.792;0.252;2024-03-29T06:53:31;9.10;99.90
14370;DHT22;7268;50.792;0.252;2024-03-29T06:55:57;9.50;99.90
14370;DHT22;7268;50.792;0.252;2024-03-29T06:58:23;9.60;99.90
14370;DHT22;7268;50.792;0.252;2024-03-29T07:00:49;9.70;99.90
14370;DHT22;7268;50.792;0.252;2024-03-29T07:03:16;10.10;99.90
14370;DHT22;7268;50.792;0.252;2024-03-29T07:05:42;10.80;99.90
14370;DHT22;7268;50.792;0.252;2024-03-29T07:08:08;11.30;99.90
14370;DHT22;7268;50.792;0.252;2024-03-29T07:10:34;11.60;99.90
14370;DHT22;7268;50.792;0.252;2024-03-29T07:13:00;11.30;99.90
14370;DHT22;7268;50.792;0.252;2024-03-29T07:15:26;11.40;99.90
14370;DHT22;7268;50.792;0.252;2024-03-29T07:17:52;12.00;99.90
14370;DHT22;7268;50.792;0.252;2024-03-29T07:20:18;12.40;99.90
14370;DHT22;7268;50.792;0.252;2024-03-29T07:22:44;12.70;99.90
14370;DHT22;7268;50.792;0.252;2024-03-29T07:25:11;12.90;99.90
14370;DHT22;7268;50.792;0.252;2024-03-29T07:27:37;13.50;99.90
14370;DHT22;7268;50.792;0.252;2024-03-29T07:30:04;13.80;99.90
14370;DHT22;7268;50.792;0.252;2024-03-29T07:32:31;14.30;99.90
14370;DHT22;7268;50.792;0.252;2024-03-29T07:34:57;14.80;99.90
14370;DHT22;7268;50.792;0.252;2024-03-29T07:37:24;14.90;99.90
14370;DHT22;7268;50.792;0.252;2024-03-29T07:39:50;14.20;99.90
14370;DHT22;7268;50.792;0.252;2024-03-29T07:42:16;13.20;99.90
14370;DHT22;7268;50.792;0.252;2024-03-29T07:44:42;12.70;99.90
14370;DHT22;7268;50.792;0.252;2024-03-29T07:47:08;12.20;99.90
14370;DHT22;7268;50.792;0.252;2024-03-29T07:49:34;12.10;99.90
14370;DHT22;7268;50.792;0.252;2024-03-29T07:52:02;12.50;99.90
14370;DHT22;7268;50.792;0.252;2024-03-29T07:54:32;13.00;99.90
14370;DHT22;7268;50.792;0.252;2024-03-29T07:56:58;12.90;99.90
14370;DHT22;7268;50.792;0.252;2024-03-29T07:59:24;12.70;99.90
14370;DHT22;7268;50.792;0.252;2024-03-29T08:01:50;12.60;99.90
14370;DHT22;7268;50.792;0.252;2024-03-29T08:04:18;12.50;99.90
14370;DHT22;7268;50.792;0.252;2024-03-29T08:06:44;12.30;99.90
14370;DHT22;7268;50.792;0.252;2024-03-29T08:09:10;12.40;99.90
14370;DHT22;7268;50.792;0.252;2024-03-29T08:11:36;13.00;99.90
14370;DHT22;7268;50.792;0.252;2024-03-29T08:14:02;13.60;99.90
14370;DHT22;7268;50.792;0.252;2024-03-29T08:16:28;13.90;99.90
14370;DHT22;7268;50.792;0.252;2024-03-29T08:18:54;15.20;99.90
14370;DHT22;7268;50.792;0.252;2024-03-29T08:21:20;15.20;99.90
14370;DHT22;7268;50.792;0.252;2024-03-29T08:23:46;14.20;99.90
14370;DHT22;7268;50.792;0.252;2024-03-29T08:26:13;13.30;99.90
14370;DHT22;7268;50.792;0.252;2024-03-29T08:28:39;12.50;99.90
14370;DHT22;7268;50.792;0.252;2024-03-29T08:31:06;11.90;99.90
14370;DHT22;7268;50.792;0.252;2024-03-29T08:33:35;11.40;99.90
14370;DHT22;7268;50.792;0.252;2024-03-29T08:36:06;11.70;99.90
14370;DHT22;7268;50.792;0.252;2024-03-29T08:38:34;12.60;99.90
14370;DHT22;7268;50.792;0.252;2024-03-29T08:41:00;13.40;99.90
14370;DHT22;7268;50.792;0.252;2024-03-29T08:43:26;13.60;99.90
14370;DHT22;7268;50.792;0.252;2024-03-29T08:45:52;12.90;99.90
14370;DHT22;7268;50.792;0.252;2024-03-29T08:48:18;12.70;99.90
14370;DHT22;7268;50.792;0.252;2024-03-29T08:50:44;12.40;99.90
14370;DHT22;7268;50.792;0.252;2024-03-29T08:53:11;12.30;99.90
14370;DHT22;7268;50.792;0.252;2024-03-29T08:55:37;12.20;99.90
14370;DHT22;7268;50.792;0.252;2024-03-29T08:58:05;12.10;99.90
14370;DHT22;7268;50.792;0.252;2024-03-29T09:00:31;11.80;99.90
14370;DHT22;7268;50.792;0.252;2024-03-29T09:02:57;11.80;99.90
14370;DHT22;7268;50.792;0.252;2024-03-29T09:05:23;11.60;99.90
14370;DHT22;7268;50.792;0.252;2024-03-29T09:07:50;11.60;99.90
14370;DHT22;7268;50.792;0.252;2024-03-29T09:10:16;12.10;99.90
14370;DHT22;7268;50.792;0.252;2024-03-29T09:12:43;13.60;99.90
14370;DHT22;7268;50.792;0.252;2024-03-29T09:15:09;14.30;99.90
14370;DHT22;7268;50.792;0.252;2024-03-29T09:17:42;15.50;99.90
14370;DHT22;7268;50.792;0.252;2024-03-29T09:20:09;15.50;99.90
14370;DHT22;7268;50.792;0.252;2024-03-29T09:22:35;14.20;99.90
14370;DHT22;7268;50.792;0.252;2024-03-29T09:25:03;13.50;99.90
14370;DHT22;7268;50.792;0.252;2024-03-29T09:27:29;13.60;99.90
14370;DHT22;7268;50.792;0.252;2024-03-29T09:29:55;13.30;99.90
14370;DHT22;7268;50.792;0.252;2024-03-29T09:32:22;13.10;99.90
14370;DHT22;7268;50.792;0.252;2024-03-29T09:34:48;12.40;99.90
14370;DHT22;7268;50.792;0.252;2024-03-29T09:37:14;12.20;99.90
14370;DHT22;7268;50.792;0.252;2024-03-29T09:39:41;12.50;99.90
14370;DHT22;7268;50.792;0.252;2024-03-29T09:42:07;13.40;99.90
14370;DHT22;7268;50.792;0.252;2024-03-29T09:44:40;13.90;99.90
14370;DHT22;7268;50.792;0.252;2024-03-29T09:47:07;13.40;99.90
14370;DHT22;7268;50.792;0.252;2024-03-29T09:49:34;12.90;99.90
14370;DHT22;7268;50.792;0.252;2024-03-29T09:52:01;13.30;99.90
14370;DHT22;7268;50.792;0.252;2024-03-29T09:54:30;13.70;99.90
14370;DHT22;7268;50.792;0.252;2024-03-29T09:56:57;13.90;99.90
14370;DHT22;7268;50.792;0.252;2024-03-29T09:59:24;15.00;99.90
14370;DHT22;7268;50.792;0.252;2024-03-29T10:01:54;15.90;99.90
14370;DHT22;7268;50.792;0.252;2024-03-29T10:04:23;15.80;99.90
14370;DHT22;7268;50.792;0.252;2024-03-29T10:06:51;16.70;99.90
14370;DHT22;7268;50.792;0.252;2024-03-29T10:09:17;17.90;99.90
14370;DHT22;7268;50.792;0.252;2024-03-29T10:11:44;16.80;99.90
14370;DHT22;7268;50.792;0.252;2024-03-29T10:14:11;15.80;99.90
14370;DHT22;7268;50.792;0.252;2024-03-29T10:16:37;15.20;99.90
14370;DHT22;7268;50.792;0.252;2024-03-29T10:19:04;16.10;99.90
14370;DHT22;7268;50.792;0.252;2024-03-29T10:21:30;16.10;99.90
14370;DHT22;7268;50.792;0.252;2024-03-29T10:23:56;16.30;99.90
14370;DHT22;7268;50.792;0.252;2024-03-29T10:26:22;16.60;99.90
14370;DHT22;7268;50.792;0.252;2024-03-29T10:28:48;17.00;99.90
14370;DHT22;7268;50.792;0.252;2024-03-29T10:31:17;16.90;99.90
14370;DHT22;7268;50.792;0.252;2024-03-29T10:33:45;16.60;99.90
14370;DHT22;7268;50.792;0.252;2024-03-29T10:36:11;16.80;99.90
14370;DHT22;7268;50.792;0.252;2024-03-29T10:38:40;16.80;99.90
14370;DHT22;7268;50.792;0.252;2024-03-29T10:41:07;17.00;99.90
14370;DHT22;7268;50.792;0.252;2024-03-29T10:43:33;17.00;99.90
14370;DHT22;7268;50.792;0.252;2024-03-29T10:46:03;17.40;99.90
14370;DHT22;7268;50.792;0.252;2024-03-29T10:48:30;17.50;99.90
14370;DHT22;7268;50.792;0.252;2024-03-29T10:50:59;17.00;99.90
14370;DHT22;7268;50.792;0.252;2024-03-29T10:53:27;16.40;99.90
14370;DHT22;7268;50.792;0.252;2024-03-29T10:55:54;16.20;99.90
14370;DHT22;7268;50.792;0.252;2024-03-29T10:58:22;16.60;99.90
14370;DHT22;7268;50.792;0.252;2024-03-29T11:00:56;16.70;99.90
14370;DHT22;7268;50.792;0.252;2024-03-29T11:03:54;17.00;99.90
14370;DHT22;7268;50.792;0.252;2024-03-29T11:06:22;16.80;99.90
14370;DHT22;7268;50.792;0.252;2024-03-29T11:08:52;17.20;99.90
14370;DHT22;7268;50.792;0.252;2024-03-29T11:11:20;17.20;99.90
14370;DHT22;7268;50.792;0.252;2024-03-29T11:14:04;16.80;99.90
14370;DHT22;7268;50.792;0.252;2024-03-29T11:16:33;17.20;99.90
14370;DHT22;7268;50.792;0.252;2024-03-29T11:18:59;17.50;99.90
14370;DHT22;7268;50.792;0.252;2024-03-29T11:21:28;17.00;99.90
14370;DHT22;7268;50.792;0.252;2024-03-29T11:23:56;17.00;99.90
14370;DHT22;7268;50.792;0.252;2024-03-29T11:26:23;17.10;99.90
14370;DHT22;7268;50.792;0.252;2024-03-29T11:28:52;17.00;99.90
14370;DHT22;7268;50.792;0.252;2024-03-29T11:31:22;17.00;99.90
14370;DHT22;7268;50.792;0.252;2024-03-29T11:33:49;17.00;99.90
14370;DHT22;7268;50.792;0.252;2024-03-29T11:38:45;18.10;99.90
14370;DHT22;7268;50.792;0.252;2024-03-29T11:43:38;17.20;99.90
14370;DHT22;7268;50.792;0.252;2024-03-29T11:46:07;17.90;99.90
14370;DHT22;7268;50.792;0.252;2024-03-29T11:48:34;18.10;99.90
14370;DHT22;7268;50.792;0.252;2024-03-29T11:51:11;17.60;99.90
14370;DHT22;7268;50.792;0.252;2024-03-29T11:53:40;16.90;99.90
14370;DHT22;7268;50.792;0.252;2024-03-29T11:56:06;16.40;99.90
14370;DHT22;7268;50.792;0.252;2024-03-29T11:58:33;16.10;99.90
14370;DHT22;7268;50.792;0.252;2024-03-29T12:01:00;16.00;99.90
14370;DHT22;7268;50.792;0.252;2024-03-29T12:03:28;15.80;99.90
14370;DHT22;7268;50.792;0.252;2024-03-29T12:05:55;15.60;99.90
14370;DHT22;7268;50.792;0.252;2024-03-29T12:08:31;15.50;99.90
14370;DHT22;7268;50.792;0.252;2024-03-29T12:11:01;15.40;99.90
14370;DHT22;7268;50.792;0.252;2024-03-29T12:13:28;15.40;99.90
14370;DHT22;7268;50.792;0.252;2024-03-29T12:15:54;15.20;99.90
14370;DHT22;7268;50.792;0.252;2024-03-29T12:18:22;15.60;99.90
14370;DHT22;7268;50.792;0.252;2024-03-29T12:20:49;16.60;99.90
14370;DHT22;7268;50.792;0.252;2024-03-29T12:23:19;17.10;99.90
14370;DHT22;7268;50.792;0.252;2024-03-29T12:25:47;17.20;99.90
14370;DHT22;7268;50.792;0.252;2024-03-29T12:28:14;16.90;99.90
14370;DHT22;7268;50.792;0.252;2024-03-29T12:30:46;16.30;99.90
14370;DHT22;7268;50.792;0.252;2024-03-29T12:33:17;15.30;99.90
14370;DHT22;7268;50.792;0.252;2024-03-29T12:35:46;14.70;99.90
14370;DHT22;7268;50.792;0.252;2024-03-29T12:38:16;14.50;99.90
14370;DHT22;7268;50.792;0.252;2024-03-29T12:40:44;14.20;99.90
14370;DHT22;7268;50.792;0.252;2024-03-29T12:43:11;14.00;99.90
14370;DHT22;7268;50.792;0.252;2024-03-29T12:45:39;13.80;99.90
14370;DHT22;7268;50.792;0.252;2024-03-29T12:48:19;13.80;99.90
14370;DHT22;7268;50.792;0.252;2024-03-29T12:50:51;13.40;99.90
14370;DHT22;7268;50.792;0.252;2024-03-29T12:53:19;13.30;99.90
14370;DHT22;7268;50.792;0.252;2024-03-29T12:55:46;13.20;99.90
14370;DHT22;7268;50.792;0.252;2024-03-29T12:58:13;13.20;99.90
14370;DHT22;7268;50.792;0.252;2024-03-29T13:00:39;13.10;99.90
14370;DHT22;7268;50.792;0.252;2024-03-29T13:03:06;13.30;99.90
14370;DHT22;7268;50.792;0.252;2024-03-29T13:05:34;13.30;99.90
14370;DHT22;7268;50.792;0.252;2024-03-29T13:08:10;13.60;99.90
14370;DHT22;7268;50.792;0.252;2024-03-29T13:10:39;13.70;99.90
14370;DHT22;7268;50.792;0.252;2024-03-29T13:13:06;13.70;99.90
14370;DHT22;7268;50.792;0.252;2024-03-29T13:15:33;13.70;99.90
14370;DHT22;7268;50.792;0.252;2024-03-29T13:18:00;13.80;99.90
14370;DHT22;7268;50.792;0.252;2024-03-29T13:20:26;13.80;99.90
14370;DHT22;7268;50.792;0.252;2024-03-29T13:22:52;13.90;99.90
14370;DHT22;7268;50.792;0.252;2024-03-29T13:25:20;13.90;99.90
14370;DHT22;7268;50.792;0.252;2024-03-29T13:27:51;13.80;99.90
14370;DHT22;7268;50.792;0.252;2024-03-29T13:30:25;13.70;99.90
14370;DHT22;7268;50.792;0.252;2024-03-29T13:32:51;13.70;99.90
14370;DHT22;7268;50.792;0.252;2024-03-29T13:35:17;13.50;99.90
14370;DHT22;7268;50.792;0.252;2024-03-29T13:37:48;13.40;99.90
14370;DHT22;7268;50.792;0.252;2024-03-29T13:40:15;13.30;99.90
14370;DHT22;7268;50.792;0.252;2024-03-29T13:42:41;13.30;99.90
14370;DHT22;7268;50.792;0.252;2024-03-29T13:45:08;13.20;99.90
14370;DHT22;7268;50.792;0.252;2024-03-29T13:47:39;13.30;99.90
14370;DHT22;7268;50.792;0.252;2024-03-29T13:50:06;13.20;99.90
14370;DHT22;7268;50.792;0.252;2024-03-29T13:52:33;13.20;99.90
14370;DHT22;7268;50.792;0.252;2024-03-29T13:54:59;13.30;99.90
14370;DHT22;7268;50.792;0.252;2024-03-29T13:57:25;13.20;99.90
14370;DHT22;7268;50.792;0.252;2024-03-29T13:59:52;13.20;99.90
14370;DHT22;7268;50.792;0.252;2024-03-29T14:02:19;13.30;99.90
14370;DHT22;7268;50.792;0.252;2024-03-29T14:04:46;13.20;99.90
14370;DHT22;7268;50.792;0.252;2024-03-29T14:07:13;13.30;99.90
14370;DHT22;7268;50.792;0.252;2024-03-29T14:09:44;13.20;99.90
14370;DHT22;7268;50.792;0.252;2024-03-29T14:12:10;13.20;99.90
14370;DHT22;7268;50.792;0.252;2024-03-29T14:14:36;13.20;99.90
14370;DHT22;7268;50.792;0.252;2024-03-29T14:17:02;13.10;99.90
14370;DHT22;7268;50.792;0.252;2024-03-29T14:19:35;13.20;99.90
14370;DHT22;7268;50.792;0.252;2024-03-29T14:22:02;13.20;99.90
14370;DHT22;7268;50.792;0.252;2024-03-29T14:24:29;13.20;99.90
14370;DHT22;7268;50.792;0.252;2024-03-29T14:26:57;13.20;99.90
14370;DHT22;7268;50.792;0.252;2024-03-29T14:29:23;13.20;99.90
14370;DHT22;7268;50.792;0.252;2024-03-29T14:31:49;13.20;99.90
14370;DHT22;7268;50.792;0.252;2024-03-29T14:34:16;13.20;99.90
14370;DHT22;7268;50.792;0.252;2024-03-29T14:36:42;13.20;99.90
14370;DHT22;7268;50.792;0.252;2024-03-29T14:39:08;13.30;99.90
14370;DHT22;7268;50.792;0.252;2024-03-29T14:41:35;13.30;99.90
14370;DHT22;7268;50.792;0.252;2024-03-29T14:44:02;13.10;99.90
14370;DHT22;7268;50.792;0.252;2024-03-29T14:46:28;13.20;99.90
14370;DHT22;7268;50.792;0.252;2024-03-29T14:48:54;13.20;99.90
14370;DHT22;7268;50.792;0.252;2024-03-29T14:51:20;13.10;99.90
14370;DHT22;7268;50.792;0.252;2024-03-29T14:53:47;13.20;99.90
14370;DHT22;7268;50.792;0.252;2024-03-29T14:56:16;13.20;99.90
14370;DHT22;7268;50.792;0.252;2024-03-29T14:58:42;13.40;99.90
14370;DHT22;7268;50.792;0.252;2024-03-29T15:01:09;13.50;99.90
14370;DHT22;7268;50.792;0.252;2024-03-29T15:03:35;13.50;99.90
14370;DHT22;7268;50.792;0.252;2024-03-29T15:06:01;13.40;99.90
14370;DHT22;7268;50.792;0.252;2024-03-29T15:08:27;13.40;99.90
14370;DHT22;7268;50.792;0.252;2024-03-29T15:11:00;13.60;99.90
14370;DHT22;7268;50.792;0.252;2024-03-29T15:13:27;13.70;99.90
14370;DHT22;7268;50.792;0.252;2024-03-29T15:15:55;13.60;99.90
14370;DHT22;7268;50.792;0.252;2024-03-29T15:18:22;13.60;99.90
14370;DHT22;7268;50.792;0.252;2024-03-29T15:20:57;13.70;99.90
14370;DHT22;7268;50.792;0.252;2024-03-29T15:23:23;13.70;99.90
14370;DHT22;7268;50.792;0.252;2024-03-29T15:25:53;13.50;99.90
14370;DHT22;7268;50.792;0.252;2024-03-29T15:28:25;13.50;99.90
14370;DHT22;7268;50.792;0.252;2024-03-29T15:31:14;13.40;99.90
14370;DHT22;7268;50.792;0.252;2024-03-29T15:33:46;13.40;99.90
14370;DHT22;7268;50.792;0.252;2024-03-29T15:36:13;13.50;99.90
14370;DHT22;7268;50.792;0.252;2024-03-29T15:38:39;13.50;99.90
14370;DHT22;7268;50.792;0.252;2024-03-29T15:41:05;13.50;99.90
14370;DHT22;7268;50.792;0.252;2024-03-29T15:43:32;13.40;99.90
14370;DHT22;7268;50.792;0.252;2024-03-29T15:45:58;13.40;99.90
14370;DHT22;7268;50.792;0.252;2024-03-29T15:48:24;13.30;99.90
14370;DHT22;7268;50.792;0.252;2024-03-29T15:50:51;13.30;99.90
14370;DHT22;7268;50.792;0.252;2024-03-29T15:53:17;13.20;99.90
14370;DHT22;7268;50.792;0.252;2024-03-29T15:55:44;13.00;99.90
14370;DHT22;7268;50.792;0.252;2024-03-29T15:58:13;12.90;99.90
14370;DHT22;7268;50.792;0.252;2024-03-29T16:00:40;12.90;99.90